sensor_id;sensor_type;location;lat;lon;timestamp;temperature;humidity
12452;DHT22;6291;48.924;12.204;2023-04-28T00:00:15;8.90;99.90
12452;DHT22;6291;48.924;12.204;2023-04-28T00:05:19;8.90;99.90
12452;DHT22;6291;48.924;12.204;2023-04-28T00:10:25;8.80;99.90
12452;DHT22;6291;48.924;12.204;2023-04-28T00:15:29;8.70;99.90
12452;DHT22;6291;48.924;12.204;2023-04-28T00:20:32;8.70;99.90
12452;DHT22;6291;48.924;12.204;2023-04-28T00:25:37;8.60;99.90
12452;DHT22;6291;48.924;12.204;2023-04-28T00:30:40;8.50;99.90
12452;DHT22;6291;48.924;12.204;2023-04-28T00:35:44;8.50;99.90
12452;DHT22;6291;48.924;12.204;2023-04-28T00:40:49;8.50;1.00
12452;DHT22;6291;48.924;12.204;2023-04-28T00:45:52;8.50;1.00
12452;DHT22;6291;48.924;12.204;2023-04-28T00:50:56;8.50;1.00
12452;DHT22;6291;48.924;12.204;2023-04-28T00:56:00;8.50;1.00
12452;DHT22;6291;48.924;12.204;2023-04-28T01:01:06;8.50;1.00
12452;DHT22;6291;48.924;12.204;2023-04-28T01:06:11;8.50;1.00
12452;DHT22;6291;48.924;12.204;2023-04-28T01:11:16;8.60;1.00
12452;DHT22;6291;48.924;12.204;2023-04-28T01:16:42;8.60;1.00
12452;DHT22;6291;48.924;12.204;2023-04-28T01:21:46;8.50;1.00
12452;DHT22;6291;48.924;12.204;2023-04-28T01:26:55;8.50;1.00
12452;DHT22;6291;48.924;12.204;2023-04-28T01:31:58;8.50;1.00
12452;DHT22;6291;48.924;12.204;2023-04-28T01:37:02;8.30;1.00
12452;DHT22;6291;48.924;12.204;2023-04-28T01:42:07;8.20;1.00
12452;DHT22;6291;48.924;12.204;2023-04-28T01:47:10;8.10;1.00
12452;DHT22;6291;48.924;12.204;2023-04-28T01:52:14;8.20;1.00
12452;DHT22;6291;48.924;12.204;2023-04-28T01:57:19;8.20;1.00
12452;DHT22;6291;48.924;12.204;2023-04-28T02:02:25;8.20;1.00
12452;DHT22;6291;48.924;12.204;2023-04-28T02:07:29;8.30;1.00
12452;DHT22;6291;48.924;12.204;2023-04-28T02:12:34;8.30;1.00
12452;DHT22;6291;48.924;12.204;2023-04-28T02:17:37;8.20;1.00
12452;DHT22;6291;48.924;12.204;2023-04-28T02:22:41;8.30;1.00
12452;DHT22;6291;48.924;12.204;2023-04-28T02:27:46;8.30;1.00
12452;DHT22;6291;48.924;12.204;2023-04-28T02:32:49;8.10;1.00
12452;DHT22;6291;48.924;12.204;2023-04-28T02:37:53;8.00;1.00
12452;DHT22;6291;48.924;12.204;2023-04-28T02:42:58;8.00;1.00
12452;DHT22;6291;48.924;12.204;2023-04-28T02:48:01;8.00;1.00
12452;DHT22;6291;48.924;12.204;2023-04-28T02:53:05;8.00;1.00
12452;DHT22;6291;48.924;12.204;2023-04-28T02:58:10;8.00;1.00
12452;DHT22;6291;48.924;12.204;2023-04-28T03:03:14;7.90;1.00
12452;DHT22;6291;48.924;12.204;2023-04-28T03:08:18;8.10;1.00
12452;DHT22;6291;48.924;12.204;2023-04-28T03:13:23;8.10;1.00
12452;DHT22;6291;48.924;12.204;2023-04-28T03:18:28;8.00;1.00
12452;DHT22;6291;48.924;12.204;2023-04-28T03:23:32;8.10;1.00
12452;DHT22;6291;48.924;12.204;2023-04-28T03:28:38;8.10;1.00
12452;DHT22;6291;48.924;12.204;2023-04-28T03:33:41;8.20;1.00
12452;DHT22;6291;48.924;12.204;2023-04-28T03:38:47;8.20;1.00
12452;DHT22;6291;48.924;12.204;2023-04-28T03:43:52;8.20;1.00
12452;DHT22;6291;48.924;12.204;2023-04-28T03:49:05;8.10;1.00
12452;DHT22;6291;48.924;12.204;2023-04-28T03:54:09;4.90;1.00
12452;DHT22;6291;48.924;12.204;2023-04-28T03:59:15;8.10;1.00
12452;DHT22;6291;48.924;12.204;2023-04-28T04:04:18;8.10;1.00
12452;DHT22;6291;48.924;12.204;2023-04-28T04:09:23;8.10;1.00
12452;DHT22;6291;48.924;12.204;2023-04-28T04:14:30;8.00;1.00
12452;DHT22;6291;48.924;12.204;2023-04-28T04:19:34;8.00;1.00
12452;DHT22;6291;48.924;12.204;2023-04-28T04:24:40;8.10;1.00
12452;DHT22;6291;48.924;12.204;2023-04-28T04:29:46;8.20;1.00
12452;DHT22;6291;48.924;12.204;2023-04-28T04:34:50;8.30;1.00
12452;DHT22;6291;48.924;12.204;2023-04-28T04:39:54;8.30;1.00
12452;DHT22;6291;48.924;12.204;2023-04-28T04:44:59;8.30;1.00
12452;DHT22;6291;48.924;12.204;2023-04-28T04:50:05;6.00;1.00
12452;DHT22;6291;48.924;12.204;2023-04-28T04:55:09;8.40;1.00
12452;DHT22;6291;48.924;12.204;2023-04-28T05:00:18;8.40;1.00
12452;DHT22;6291;48.924;12.204;2023-04-28T05:05:22;8.50;1.00
12452;DHT22;6291;48.924;12.204;2023-04-28T05:10:38;8.40;1.00
12452;DHT22;6291;48.924;12.204;2023-04-28T05:15:44;9.70;1.00
12452;DHT22;6291;48.924;12.204;2023-04-28T05:21:00;8.60;1.00
12452;DHT22;6291;48.924;12.204;2023-04-28T05:26:04;8.70;1.00
12452;DHT22;6291;48.924;12.204;2023-04-28T05:31:10;8.60;1.00
12452;DHT22;6291;48.924;12.204;2023-04-28T05:36:14;8.80;1.00
12452;DHT22;6291;48.924;12.204;2023-04-28T05:41:20;8.90;1.00
12452;DHT22;6291;48.924;12.204;2023-04-28T05:46:25;9.00;1.00
12452;DHT22;6291;48.924;12.204;2023-04-28T05:51:33;9.10;1.00
12452;DHT22;6291;48.924;12.204;2023-04-28T05:56:37;9.20;1.00
12452;DHT22;6291;48.924;12.204;2023-04-28T06:01:43;9.20;1.00
12452;DHT22;6291;48.924;12.204;2023-04-28T06:06:48;9.40;1.00
12452;DHT22;6291;48.924;12.204;2023-04-28T06:11:51;9.70;1.00
12452;DHT22;6291;48.924;12.204;2023-04-28T06:16:56;9.60;1.00
12452;DHT22;6291;48.924;12.204;2023-04-28T06:21:59;9.60;1.00
12452;DHT22;6291;48.924;12.204;2023-04-28T06:27:04;9.60;1.00
12452;DHT22;6291;48.924;12.204;2023-04-28T06:32:09;9.60;1.00
12452;DHT22;6291;48.924;12.204;2023-04-28T06:37:12;9.50;1.00
12452;DHT22;6291;48.924;12.204;2023-04-28T06:42:16;9.60;1.00
12452;DHT22;6291;48.924;12.204;2023-04-28T06:47:34;9.70;1.00
12452;DHT22;6291;48.924;12.204;2023-04-28T06:52:42;9.80;1.00
12452;DHT22;6291;48.924;12.204;2023-04-28T06:57:46;9.80;1.00
12452;DHT22;6291;48.924;12.204;2023-04-28T07:02:52;9.90;1.00
12452;DHT22;6291;48.924;12.204;2023-04-28T07:07:55;10.00;1.00
12452;DHT22;6291;48.924;12.204;2023-04-28T07:12:59;10.00;1.00
12452;DHT22;6291;48.924;12.204;2023-04-28T07:18:05;10.10;1.00
12452;DHT22;6291;48.924;12.204;2023-04-28T07:23:09;10.20;1.00
12452;DHT22;6291;48.924;12.204;2023-04-28T07:28:12;10.40;1.00
12452;DHT22;6291;48.924;12.204;2023-04-28T07:33:17;10.70;1.00
12452;DHT22;6291;48.924;12.204;2023-04-28T07:38:20;12.20;1.00
12452;DHT22;6291;48.924;12.204;2023-04-28T07:43:24;10.20;1.00
12452;DHT22;6291;48.924;12.204;2023-04-28T07:48:29;10.00;1.00
12452;DHT22;6291;48.924;12.204;2023-04-28T07:53:33;10.10;1.00
12452;DHT22;6291;48.924;12.204;2023-04-28T07:58:37;10.10;1.00
12452;DHT22;6291;48.924;12.204;2023-04-28T08:03:44;9.90;1.00
12452;DHT22;6291;48.924;12.204;2023-04-28T08:08:50;9.80;1.00
12452;DHT22;6291;48.924;12.204;2023-04-28T08:13:54;10.00;1.00
12452;DHT22;6291;48.924;12.204;2023-04-28T08:19:03;9.80;1.00
12452;DHT22;6291;48.924;12.204;2023-04-28T08:24:07;9.70;1.00
12452;DHT22;6291;48.924;12.204;2023-04-28T08:29:11;10.00;1.00
12452;DHT22;6291;48.924;12.204;2023-04-28T08:34:16;10.20;1.00
12452;DHT22;6291;48.924;12.204;2023-04-28T08:39:20;10.10;1.00
12452;DHT22;6291;48.924;12.204;2023-04-28T08:44:24;10.00;1.00
12452;DHT22;6291;48.924;12.204;2023-04-28T08:49:33;10.00;1.00
12452;DHT22;6291;48.924;12.204;2023-04-28T08:54:39;10.00;73.40
12452;DHT22;6291;48.924;12.204;2023-04-28T08:59:44;10.20;36.10
12452;DHT22;6291;48.924;12.204;2023-04-28T09:04:49;10.20;1.00
12452;DHT22;6291;48.924;12.204;2023-04-28T09:10:18;10.30;99.90
12452;DHT22;6291;48.924;12.204;2023-04-28T09:15:26;10.20;99.90
12452;DHT22;6291;48.924;12.204;2023-04-28T09:20:35;10.30;99.90
12452;DHT22;6291;48.924;12.204;2023-04-28T09:25:39;10.40;99.90
12452;DHT22;6291;48.924;12.204;2023-04-28T09:30:42;10.30;29.10
12452;DHT22;6291;48.924;12.204;2023-04-28T09:35:47;10.30;1.00
12452;DHT22;6291;48.924;12.204;2023-04-28T09:40:52;10.20;1.00
12452;DHT22;6291;48.924;12.204;2023-04-28T09:45:57;10.30;99.90
12452;DHT22;6291;48.924;12.204;2023-04-28T09:51:05;10.50;99.90
12452;DHT22;6291;48.924;12.204;2023-04-28T09:56:09;10.50;1.00
12452;DHT22;6291;48.924;12.204;2023-04-28T10:01:12;10.40;99.30
12452;DHT22;6291;48.924;12.204;2023-04-28T10:06:18;10.20;1.00
12452;DHT22;6291;48.924;12.204;2023-04-28T10:11:22;10.30;99.90
12452;DHT22;6291;48.924;12.204;2023-04-28T10:16:30;11.90;1.00
12452;DHT22;6291;48.924;12.204;2023-04-28T10:21:44;10.20;1.00
12452;DHT22;6291;48.924;12.204;2023-04-28T10:27:02;10.30;99.90
12452;DHT22;6291;48.924;12.204;2023-04-28T10:32:19;10.10;99.90
12452;DHT22;6291;48.924;12.204;2023-04-28T10:42:58;10.20;1.00
12452;DHT22;6291;48.924;12.204;2023-04-28T10:48:02;10.10;39.90
12452;DHT22;6291;48.924;12.204;2023-04-28T10:53:07;10.10;99.90
12452;DHT22;6291;48.924;12.204;2023-04-28T10:58:31;10.10;99.90
12452;DHT22;6291;48.924;12.204;2023-04-28T11:03:47;10.20;99.90
12452;DHT22;6291;48.924;12.204;2023-04-28T11:08:52;10.10;99.90
12452;DHT22;6291;48.924;12.204;2023-04-28T11:14:32;10.30;99.90
12452;DHT22;6291;48.924;12.204;2023-04-28T11:19:38;8.80;99.90
12452;DHT22;6291;48.924;12.204;2023-04-28T11:24:54;10.50;99.90
12452;DHT22;6291;48.924;12.204;2023-04-28T11:30:00;10.50;99.90
12452;DHT22;6291;48.924;12.204;2023-04-28T11:35:04;10.60;99.90
12452;DHT22;6291;48.924;12.204;2023-04-28T11:40:11;10.60;99.90
12452;DHT22;6291;48.924;12.204;2023-04-28T11:45:23;10.80;99.90
12452;DHT22;6291;48.924;12.204;2023-04-28T11:50:34;10.90;99.90
12452;DHT22;6291;48.924;12.204;2023-04-28T11:55:38;10.90;99.90
12452;DHT22;6291;48.924;12.204;2023-04-28T12:00:43;10.90;99.90
12452;DHT22;6291;48.924;12.204;2023-04-28T12:05:47;10.70;99.90
12452;DHT22;6291;48.924;12.204;2023-04-28T12:11:08;10.80;99.90
12452;DHT22;6291;48.924;12.204;2023-04-28T12:16:41;11.10;99.90
12452;DHT22;6291;48.924;12.204;2023-04-28T12:21:59;11.10;99.90
12452;DHT22;6291;48.924;12.204;2023-04-28T12:27:16;10.80;99.90
12452;DHT22;6291;48.924;12.204;2023-04-28T12:32:37;11.10;99.90
12452;DHT22;6291;48.924;12.204;2023-04-28T12:37:41;11.20;99.90
12452;DHT22;6291;48.924;12.204;2023-04-28T12:42:46;11.40;99.90
12452;DHT22;6291;48.924;12.204;2023-04-28T12:47:51;11.40;99.90
12452;DHT22;6291;48.924;12.204;2023-04-28T12:52:54;11.50;99.90
12452;DHT22;6291;48.924;12.204;2023-04-28T12:57:58;11.70;99.90
12452;DHT22;6291;48.924;12.204;2023-04-28T13:03:03;11.60;99.90
12452;DHT22;6291;48.924;12.204;2023-04-28T13:08:08;11.80;99.90
12452;DHT22;6291;48.924;12.204;2023-04-28T13:13:12;11.90;99.90
12452;DHT22;6291;48.924;12.204;2023-04-28T13:18:16;11.80;99.90
12452;DHT22;6291;48.924;12.204;2023-04-28T13:23:20;11.90;99.90
12452;DHT22;6291;48.924;12.204;2023-04-28T13:28:23;12.10;99.90
12452;DHT22;6291;48.924;12.204;2023-04-28T13:33:28;12.10;99.90
12452;DHT22;6291;48.924;12.204;2023-04-28T13:38:32;12.00;99.90
12452;DHT22;6291;48.924;12.204;2023-04-28T13:43:35;12.00;99.90
12452;DHT22;6291;48.924;12.204;2023-04-28T13:48:40;12.20;99.90
12452;DHT22;6291;48.924;12.204;2023-04-28T13:53:43;12.40;99.90
12452;DHT22;6291;48.924;12.204;2023-04-28T13:58:47;12.20;99.90
12452;DHT22;6291;48.924;12.204;2023-04-28T14:03:52;12.10;99.90
12452;DHT22;6291;48.924;12.204;2023-04-28T14:08:55;12.40;99.90
12452;DHT22;6291;48.924;12.204;2023-04-28T14:14:00;12.70;99.90
12452;DHT22;6291;48.924;12.204;2023-04-28T14:19:05;13.00;99.90
12452;DHT22;6291;48.924;12.204;2023-04-28T14:24:09;12.60;99.90
12452;DHT22;6291;48.924;12.204;2023-04-28T14:29:12;12.50;99.90
12452;DHT22;6291;48.924;12.204;2023-04-28T14:34:17;12.40;99.90
12452;DHT22;6291;48.924;12.204;2023-04-28T14:39:21;12.30;99.90
12452;DHT22;6291;48.924;12.204;2023-04-28T14:44:25;12.50;99.90
12452;DHT22;6291;48.924;12.204;2023-04-28T14:49:29;12.50;99.90
12452;DHT22;6291;48.924;12.204;2023-04-28T14:54:33;12.20;99.90
12452;DHT22;6291;48.924;12.204;2023-04-28T14:59:37;12.40;99.90
12452;DHT22;6291;48.924;12.204;2023-04-28T15:04:41;12.40;99.90
12452;DHT22;6291;48.924;12.204;2023-04-28T15:09:45;12.40;99.90
12452;DHT22;6291;48.924;12.204;2023-04-28T15:14:49;12.30;99.90
12452;DHT22;6291;48.924;12.204;2023-04-28T15:19:56;12.20;99.90
12452;DHT22;6291;48.924;12.204;2023-04-28T15:25:01;12.10;99.90
12452;DHT22;6291;48.924;12.204;2023-04-28T15:30:06;12.20;99.90
12452;DHT22;6291;48.924;12.204;2023-04-28T15:35:12;12.20;99.90
12452;DHT22;6291;48.924;12.204;2023-04-28T15:40:16;12.10;99.90
12452;DHT22;6291;48.924;12.204;2023-04-28T15:45:20;12.10;99.90
12452;DHT22;6291;48.924;12.204;2023-04-28T15:50:25;12.20;99.90
12452;DHT22;6291;48.924;12.204;2023-04-28T15:55:29;12.20;99.90
12452;DHT22;6291;48.924;12.204;2023-04-28T16:00:32;12.10;99.90
12452;DHT22;6291;48.924;12.204;2023-04-28T16:05:37;12.10;99.90
12452;DHT22;6291;48.924;12.204;2023-04-28T16:10:41;10.90;99.90
12452;DHT22;6291;48.924;12.204;2023-04-28T16:15:45;12.10;99.90
12452;DHT22;6291;48.924;12.204;2023-04-28T16:20:52;12.10;99.90
12452;DHT22;6291;48.924;12.204;2023-04-28T16:25:56;12.10;99.90
12452;DHT22;6291;48.924;12.204;2023-04-28T16:30:59;12.00;99.90
12452;DHT22;6291;48.924;12.204;2023-04-28T16:36:05;12.20;99.90
12452;DHT22;6291;48.924;12.204;2023-04-28T16:41:09;12.20;99.90
12452;DHT22;6291;48.924;12.204;2023-04-28T16:46:13;12.10;99.90
12452;DHT22;6291;48.924;12.204;2023-04-28T16:51:18;12.20;99.90
12452;DHT22;6291;48.924;12.204;2023-04-28T16:56:23;12.20;99.90
12452;DHT22;6291;48.924;12.204;2023-04-28T17:01:26;11.80;99.90
12452;DHT22;6291;48.924;12.204;2023-04-28T17:06:34;12.30;99.90
12452;DHT22;6291;48.924;12.204;2023-04-28T17:11:37;12.20;99.90
12452;DHT22;6291;48.924;12.204;2023-04-28T17:16:41;12.20;99.90
12452;DHT22;6291;48.924;12.204;2023-04-28T17:21:47;12.00;99.90
12452;DHT22;6291;48.924;12.204;2023-04-28T17:26:53;12.00;99.90
12452;DHT22;6291;48.924;12.204;2023-04-28T17:31:57;11.90;99.90
12452;DHT22;6291;48.924;12.204;2023-04-28T17:37:02;11.80;99.90
12452;DHT22;6291;48.924;12.204;2023-04-28T17:42:06;11.90;99.90
12452;DHT22;6291;48.924;12.204;2023-04-28T17:47:10;11.90;99.90
12452;DHT22;6291;48.924;12.204;2023-04-28T17:52:17;11.90;99.90
12452;DHT22;6291;48.924;12.204;2023-04-28T17:57:21;11.90;99.90
12452;DHT22;6291;48.924;12.204;2023-04-28T18:02:25;11.70;99.90
12452;DHT22;6291;48.924;12.204;2023-04-28T18:07:30;11.60;99.90
12452;DHT22;6291;48.924;12.204;2023-04-28T18:12:33;11.50;99.90
12452;DHT22;6291;48.924;12.204;2023-04-28T18:17:37;11.60;99.90
12452;DHT22;6291;48.924;12.204;2023-04-28T18:22:41;11.50;99.90
12452;DHT22;6291;48.924;12.204;2023-04-28T18:27:45;11.50;99.90
12452;DHT22;6291;48.924;12.204;2023-04-28T18:32:48;11.50;99.90
12452;DHT22;6291;48.924;12.204;2023-04-28T18:37:54;11.50;99.90
12452;DHT22;6291;48.924;12.204;2023-04-28T18:42:59;11.40;99.90
12452;DHT22;6291;48.924;12.204;2023-04-28T18:48:03;11.30;99.90
12452;DHT22;6291;48.924;12.204;2023-04-28T18:53:08;11.40;99.90
12452;DHT22;6291;48.924;12.204;2023-04-28T18:58:12;11.30;99.90
12452;DHT22;6291;48.924;12.204;2023-04-28T19:03:16;10.20;99.90
12452;DHT22;6291;48.924;12.204;2023-04-28T19:08:21;11.40;99.90
12452;DHT22;6291;48.924;12.204;2023-04-28T19:13:25;11.50;99.90
12452;DHT22;6291;48.924;12.204;2023-04-28T19:18:29;11.40;99.90
12452;DHT22;6291;48.924;12.204;2023-04-28T19:23:34;11.30;99.90
12452;DHT22;6291;48.924;12.204;2023-04-28T19:28:37;11.30;99.90
12452;DHT22;6291;48.924;12.204;2023-04-28T19:33:41;11.40;99.90
12452;DHT22;6291;48.924;12.204;2023-04-28T19:38:48;11.30;99.90
12452;DHT22;6291;48.924;12.204;2023-04-28T19:43:52;11.40;99.90
12452;DHT22;6291;48.924;12.204;2023-04-28T19:48:56;14.10;99.90
12452;DHT22;6291;48.924;12.204;2023-04-28T19:54:01;11.30;99.90
12452;DHT22;6291;48.924;12.204;2023-04-28T19:59:04;11.30;99.90
12452;DHT22;6291;48.924;12.204;2023-04-28T20:04:08;11.30;99.90
12452;DHT22;6291;48.924;12.204;2023-04-28T20:09:13;11.50;99.90
12452;DHT22;6291;48.924;12.204;2023-04-28T20:14:17;11.40;99.90
12452;DHT22;6291;48.924;12.204;2023-04-28T20:19:22;11.20;99.90
12452;DHT22;6291;48.924;12.204;2023-04-28T20:24:27;11.00;99.90
12452;DHT22;6291;48.924;12.204;2023-04-28T20:29:33;10.90;99.90
12452;DHT22;6291;48.924;12.204;2023-04-28T20:34:38;10.70;99.90
12452;DHT22;6291;48.924;12.204;2023-04-28T20:39:43;10.50;99.90
12452;DHT22;6291;48.924;12.204;2023-04-28T20:44:48;10.30;99.90
12452;DHT22;6291;48.924;12.204;2023-04-28T20:49:52;10.20;99.90
12452;DHT22;6291;48.924;12.204;2023-04-28T20:54:57;10.00;99.90
12452;DHT22;6291;48.924;12.204;2023-04-28T21:00:01;10.00;99.90
12452;DHT22;6291;48.924;12.204;2023-04-28T21:05:06;10.00;99.90
12452;DHT22;6291;48.924;12.204;2023-04-28T21:10:11;9.90;99.90
12452;DHT22;6291;48.924;12.204;2023-04-28T21:15:15;9.70;99.90
12452;DHT22;6291;48.924;12.204;2023-04-28T21:20:18;9.60;99.90
12452;DHT22;6291;48.924;12.204;2023-04-28T21:25:23;9.60;99.90
12452;DHT22;6291;48.924;12.204;2023-04-28T21:30:27;10.70;99.90
12452;DHT22;6291;48.924;12.204;2023-04-28T21:35:31;9.30;99.90
12452;DHT22;6291;48.924;12.204;2023-04-28T21:40:35;9.50;99.90
12452;DHT22;6291;48.924;12.204;2023-04-28T21:45:39;9.90;99.90
12452;DHT22;6291;48.924;12.204;2023-04-28T21:50:42;9.20;99.90
12452;DHT22;6291;48.924;12.204;2023-04-28T21:55:47;10.30;99.90
12452;DHT22;6291;48.924;12.204;2023-04-28T22:00:51;10.40;99.90
12452;DHT22;6291;48.924;12.204;2023-04-28T22:05:55;10.40;99.90
12452;DHT22;6291;48.924;12.204;2023-04-28T22:11:01;10.50;99.90
12452;DHT22;6291;48.924;12.204;2023-04-28T22:16:05;7.40;99.90
12452;DHT22;6291;48.924;12.204;2023-04-28T22:21:09;10.40;99.90
12452;DHT22;6291;48.924;12.204;2023-04-28T22:26:15;10.40;99.90
12452;DHT22;6291;48.924;12.204;2023-04-28T22:31:20;10.40;99.90
12452;DHT22;6291;48.924;12.204;2023-04-28T22:36:23;10.50;99.90
12452;DHT22;6291;48.924;12.204;2023-04-28T22:41:28;10.50;99.90
12452;DHT22;6291;48.924;12.204;2023-04-28T22:46:31;10.50;99.90
12452;DHT22;6291;48.924;12.204;2023-04-28T22:51:35;10.50;99.90
12452;DHT22;6291;48.924;12.204;2023-04-28T22:56:40;10.50;99.90
12452;DHT22;6291;48.924;12.204;2023-04-28T23:01:43;10.50;99.90
12452;DHT22;6291;48.924;12.204;2023-04-28T23:06:47;10.60;99.90
12452;DHT22;6291;48.924;12.204;2023-04-28T23:11:52;10.60;99.90
12452;DHT22;6291;48.924;12.204;2023-04-28T23:16:55;10.50;99.90
12452;DHT22;6291;48.924;12.204;2023-04-28T23:21:59;10.60;99.90
12452;DHT22;6291;48.924;12.204;2023-04-28T23:27:04;10.60;99.90
12452;DHT22;6291;48.924;12.204;2023-04-28T23:32:07;10.70;99.90
12452;DHT22;6291;48.924;12.204;2023-04-28T23:37:11;10.70;99.90
12452;DHT22;6291;48.924;12.204;2023-04-28T23:42:15;10.70;99.90
12452;DHT22;6291;48.924;12.204;2023-04-28T23:47:22;10.80;99.90
12452;DHT22;6291;48.924;12.204;2023-04-28T23:52:25;10.80;99.90
12452;DHT22;6291;48.924;12.204;2023-04-28T23:57:30;10.80;99.90
